Time;durP1;ratioP1;P1;durP2;ratioP2;P2;SDS_P1;SDS_P2;PMS_P1;PMS_P2;Temp;Humidity;BMP_temperature;BMP_pressure;BME280_temperature;BME280_humidity;BME280_pressure;Samples;Min_cycle;Max_cycle;Signal;HPM_P1;HPM_P2
2020/12/23 00:00:52;;;;;;;1.47;1.10;;;14.10;99.90;;;;;;5094142;28;20173;-65
2020/12/23 00:03:17;;;;;;;1.33;1.10;;;14.10;99.90;;;;;;5094224;28;20541;-67
2020/12/23 00:05:43;;;;;;;1.03;0.93;;;14.00;99.90;;;;;;5094405;28;20690;-66
2020/12/23 00:08:09;;;;;;;1.37;1.20;;;14.00;99.90;;;;;;5093946;28;20190;-65
2020/12/23 00:10:34;;;;;;;1.93;1.10;;;14.00;99.90;;;;;;5079571;28;20460;-66
2020/12/23 00:13:00;;;;;;;2.50;2.10;;;13.90;99.90;;;;;;5073967;28;20173;-66
2020/12/23 00:15:26;;;;;;;1.40;1.00;;;13.90;99.90;;;;;;5073658;28;20167;-66
2020/12/23 00:17:51;;;;;;;1.30;1.20;;;14.00;99.90;;;;;;5073537;28;20197;-66
2020/12/23 00:20:17;;;;;;;1.83;1.17;;;14.00;99.90;;;;;;5073885;28;20200;-66
2020/12/23 00:22:43;;;;;;;2.63;1.20;;;14.10;99.90;;;;;;5073641;28;20259;-66
2020/12/23 00:25:08;;;;;;;0.93;0.90;;;14.20;99.90;;;;;;5072868;28;20197;-67
2020/12/23 00:27:34;;;;;;;1.50;1.07;;;14.30;99.90;;;;;;5073252;28;20216;-66
2020/12/23 00:30:00;;;;;;;2.50;1.17;;;14.30;99.90;;;;;;5076690;28;20233;-64
2020/12/23 00:32:29;;;;;;;1.10;1.00;;;14.40;99.90;;;;;;5112563;28;20164;-66
2020/12/23 00:34:55;;;;;;;0.87;0.87;;;14.30;99.90;;;;;;5113562;28;20920;-66
2020/12/23 00:37:21;;;;;;;2.20;1.33;;;14.30;99.90;;;;;;5113808;28;20410;-66
2020/12/23 00:39:46;;;;;;;0.83;0.83;;;14.40;99.90;;;;;;5099246;28;20419;-66
2020/12/23 00:42:12;;;;;;;1.30;1.20;;;14.40;99.90;;;;;;5072537;28;20681;-66
2020/12/23 00:44:37;;;;;;;1.27;1.07;;;14.50;99.90;;;;;;5073198;28;20251;-64
2020/12/23 00:47:03;;;;;;;1.97;1.13;;;14.60;99.90;;;;;;5085755;28;20186;-66
2020/12/23 00:49:28;;;;;;;1.23;0.90;;;14.50;99.90;;;;;;5092959;28;20198;-66
2020/12/23 00:51:54;;;;;;;1.63;0.90;;;14.60;99.90;;;;;;5093074;28;20157;-66
2020/12/23 00:54:20;;;;;;;1.00;0.90;;;14.50;99.90;;;;;;5093205;28;20166;-66
2020/12/23 00:56:45;;;;;;;1.87;1.30;;;14.70;99.90;;;;;;5092756;28;20625;-66
2020/12/23 00:59:11;;;;;;;1.63;1.00;;;14.80;99.90;;;;;;5093304;28;20603;-67
2020/12/23 01:01:36;;;;;;;1.13;0.90;;;14.80;99.90;;;;;;5093039;28;20181;-66
2020/12/23 01:04:03;;;;;;;1.03;0.93;;;14.90;99.90;;;;;;5092962;28;20168;-66
2020/12/23 01:06:28;;;;;;;1.20;0.80;;;14.90;99.90;;;;;;5093525;28;20172;-66
2020/12/23 01:08:54;;;;;;;1.00;0.87;;;14.80;99.90;;;;;;5093230;28;21025;-66
2020/12/23 01:11:20;;;;;;;1.10;0.90;;;14.60;99.90;;;;;;5072272;28;20611;-65
2020/12/23 01:13:46;;;;;;;1.57;0.90;;;14.80;99.90;;;;;;5071684;28;20281;-66
2020/12/23 01:16:11;;;;;;;1.30;1.20;;;14.80;99.90;;;;;;5072873;28;20425;-66
2020/12/23 01:18:37;;;;;;;1.93;1.20;;;14.80;99.90;;;;;;5072854;28;20194;-66
2020/12/23 01:21:03;;;;;;;1.83;1.20;;;14.70;99.90;;;;;;5072991;28;20172;-66
2020/12/23 01:23:28;;;;;;;1.37;0.90;;;14.70;99.90;;;;;;5072782;28;20700;-66
2020/12/23 01:25:55;;;;;;;0.80;0.70;;;14.70;99.90;;;;;;5072894;28;20176;-65
2020/12/23 01:28:21;;;;;;;1.40;1.10;;;14.80;99.90;;;;;;5072504;28;20241;-65
2020/12/23 01:30:47;;;;;;;0.90;0.80;;;14.70;99.90;;;;;;5072727;28;20445;-66
2020/12/23 01:33:13;;;;;;;0.97;0.80;;;14.70;99.90;;;;;;5074999;28;20494;-66
2020/12/23 01:35:39;;;;;;;1.13;0.97;;;14.70;99.90;;;;;;5076403;28;20415;-65
2020/12/23 01:38:05;;;;;;;0.90;0.70;;;14.80;99.90;;;;;;5076202;28;20426;-65
2020/12/23 01:40:32;;;;;;;1.00;0.90;;;15.00;99.90;;;;;;5075905;28;20179;-66
2020/12/23 01:42:57;;;;;;;1.53;0.80;;;15.00;99.90;;;;;;5075866;28;20414;-65
2020/12/23 01:45:23;;;;;;;0.70;0.60;;;15.10;99.90;;;;;;5081897;28;20441;-65
2020/12/23 01:47:49;;;;;;;1.07;0.77;;;15.00;99.90;;;;;;5094959;28;20223;-66
2020/12/23 01:50:15;;;;;;;1.20;0.80;;;15.00;99.90;;;;;;5096185;28;20191;-66
2020/12/23 01:52:42;;;;;;;1.53;0.70;;;15.10;99.90;;;;;;5096418;28;20567;-66
2020/12/23 01:55:09;;;;;;;0.80;0.80;;;15.00;99.90;;;;;;5096075;28;20409;-66
2020/12/23 01:57:35;;;;;;;1.07;0.93;;;14.90;99.90;;;;;;5095448;28;20447;-66
2020/12/23 02:00:06;;;;;;;0.87;0.80;;;14.90;99.90;;;;;;5096448;28;20440;-66
2020/12/23 02:02:34;;;;;;;2.37;0.80;;;15.00;99.90;;;;;;5095950;28;20408;-66
2020/12/23 02:05:02;;;;;;;0.90;0.77;;;15.00;99.90;;;;;;5095820;28;20406;-65
2020/12/23 02:07:29;;;;;;;1.33;0.70;;;15.10;99.90;;;;;;5095703;28;20443;-66
2020/12/23 02:09:58;;;;;;;0.80;0.70;;;15.30;99.90;;;;;;5087625;28;20481;-66
2020/12/23 02:12:24;;;;;;;0.70;0.50;;;15.30;99.90;;;;;;5075377;28;20404;-66
2020/12/23 02:14:50;;;;;;;0.87;0.63;;;15.40;99.90;;;;;;5075694;28;20910;-66
2020/12/23 02:17:17;;;;;;;0.80;0.60;;;15.40;99.90;;;;;;5074852;28;20427;-66
2020/12/23 02:19:52;;;;;;;1.47;0.70;;;15.40;99.90;;;;;;5075502;28;20445;-66
2020/12/23 02:22:22;;;;;;;0.90;0.60;;;15.40;99.90;;;;;;5075287;28;20406;-66
2020/12/23 02:24:50;;;;;;;0.70;0.70;;;15.50;99.90;;;;;;5088328;28;20498;-66
2020/12/23 02:27:16;;;;;;;0.80;0.67;;;15.40;99.90;;;;;;5095241;28;20421;-66
2020/12/23 02:29:44;;;;;;;0.80;0.60;;;15.40;99.90;;;;;;5095378;28;20443;-66
2020/12/23 02:32:10;;;;;;;0.80;0.70;;;15.30;99.90;;;;;;5095428;28;20403;-65
2020/12/23 02:34:36;;;;;;;1.00;0.80;;;15.40;99.90;;;;;;5095883;28;20411;-67
2020/12/23 02:37:04;;;;;;;0.80;0.60;;;15.40;99.90;;;;;;5095474;28;20438;-66
2020/12/23 02:39:30;;;;;;;0.90;0.70;;;15.50;99.90;;;;;;5095509;28;20440;-66
2020/12/23 02:41:57;;;;;;;0.70;0.50;;;15.60;99.90;;;;;;5094783;28;20407;-67
2020/12/23 02:44:23;;;;;;;1.03;0.70;;;15.60;99.90;;;;;;5094805;28;20411;-66
2020/12/23 02:46:58;;;;;;;1.73;0.60;;;15.50;99.90;;;;;;5086299;28;20950;-66
2020/12/23 02:49:24;;;;;;;0.80;0.70;;;15.50;99.90;;;;;;5074947;28;20235;-66
2020/12/23 02:51:50;;;;;;;0.90;0.60;;;15.50;99.90;;;;;;5074863;28;20414;-66
2020/12/23 02:54:16;;;;;;;0.77;0.60;;;15.30;99.90;;;;;;5074933;28;20403;-66
2020/12/23 02:56:42;;;;;;;0.70;0.70;;;15.40;99.90;;;;;;5074346;28;20403;-66
2020/12/23 02:59:08;;;;;;;1.20;0.73;;;15.50;99.90;;;;;;5074776;28;20207;-66
2020/12/23 03:01:35;;;;;;;0.97;0.70;;;15.40;99.90;;;;;;5074677;28;20171;-66
2020/12/23 03:04:01;;;;;;;0.80;0.70;;;15.50;99.90;;;;;;5074884;28;20415;-66
2020/12/23 03:06:27;;;;;;;1.47;0.80;;;15.50;99.90;;;;;;5074522;28;20414;-67
2020/12/23 03:08:53;;;;;;;0.80;0.60;;;15.50;99.90;;;;;;5074096;28;20196;-66
2020/12/23 03:11:19;;;;;;;0.70;0.50;;;15.50;99.90;;;;;;5073761;28;20523;-66
2020/12/23 03:13:45;;;;;;;0.77;0.67;;;15.40;99.90;;;;;;5074442;28;20438;-66
2020/12/23 03:16:10;;;;;;;1.00;0.60;;;15.60;99.90;;;;;;5074125;28;20900;-65
2020/12/23 03:18:36;;;;;;;1.17;0.80;;;15.60;99.90;;;;;;5074270;28;20245;-66
2020/12/23 03:21:01;;;;;;;0.90;0.70;;;15.60;99.90;;;;;;5074156;28;20181;-66
2020/12/23 03:23:27;;;;;;;0.80;0.70;;;15.50;99.90;;;;;;5074130;28;20265;-66
2020/12/23 03:25:53;;;;;;;1.30;0.90;;;15.50;99.90;;;;;;5074311;28;20179;-66
2020/12/23 03:28:18;;;;;;;0.80;0.70;;;15.50;99.90;;;;;;5073631;28;20193;-66
2020/12/23 03:30:44;;;;;;;1.00;0.70;;;15.40;99.90;;;;;;5074108;28;20199;-66
2020/12/23 03:33:09;;;;;;;1.43;0.83;;;15.50;99.90;;;;;;5073965;28;20176;-66
2020/12/23 03:35:36;;;;;;;0.70;0.60;;;15.40;99.90;;;;;;5074391;28;20167;-66
2020/12/23 03:38:01;;;;;;;2.37;0.80;;;15.40;99.90;;;;;;5074577;28;20196;-66
2020/12/23 03:40:27;;;;;;;0.90;0.80;;;15.60;99.90;;;;;;5091982;28;20421;-65
2020/12/23 03:42:53;;;;;;;1.23;0.80;;;15.60;99.90;;;;;;5093668;28;20210;-65
2020/12/23 03:45:18;;;;;;;0.80;0.60;;;15.70;99.90;;;;;;5094425;28;20249;-65
2020/12/23 03:47:44;;;;;;;0.80;0.70;;;15.60;99.90;;;;;;5077304;28;20200;-66
2020/12/23 03:50:10;;;;;;;2.97;0.60;;;15.60;99.90;;;;;;5073913;28;20195;-66
2020/12/23 03:52:35;;;;;;;1.30;0.70;;;15.60;99.90;;;;;;5073912;28;20629;-66
2020/12/23 03:55:01;;;;;;;0.80;0.60;;;15.40;99.90;;;;;;5073046;28;20168;-66
2020/12/23 03:57:26;;;;;;;0.80;0.70;;;15.50;99.90;;;;;;5073186;28;20169;-66
2020/12/23 03:59:52;;;;;;;0.70;0.60;;;15.60;99.90;;;;;;5072251;28;20527;-66
2020/12/23 04:02:17;;;;;;;0.83;0.70;;;15.50;99.90;;;;;;5073743;28;20171;-66
2020/12/23 04:04:43;;;;;;;0.90;0.80;;;15.60;99.90;;;;;;5073807;28;20169;-66
2020/12/23 04:07:08;;;;;;;0.97;0.73;;;15.60;99.90;;;;;;5073479;28;20174;-66
2020/12/23 04:09:34;;;;;;;1.10;0.60;;;15.60;99.90;;;;;;5073801;28;20315;-66
2020/12/23 04:11:59;;;;;;;0.90;0.73;;;15.40;99.90;;;;;;5073018;28;20169;-65
2020/12/23 04:14:25;;;;;;;3.43;0.80;;;15.40;99.90;;;;;;5073704;28;20163;-66
2020/12/23 04:16:51;;;;;;;1.07;0.90;;;15.40;99.90;;;;;;5073744;28;20168;-66
2020/12/23 04:19:16;;;;;;;0.90;0.77;;;15.50;99.90;;;;;;5093449;28;20217;-67
2020/12/23 04:21:42;;;;;;;1.57;0.70;;;15.60;99.90;;;;;;5094218;28;20641;-66
2020/12/23 04:24:07;;;;;;;3.50;0.70;;;15.60;99.90;;;;;;5093430;28;20167;-66
2020/12/23 04:26:33;;;;;;;1.20;0.70;;;15.50;99.90;;;;;;5093395;28;20538;-65
2020/12/23 04:28:58;;;;;;;0.90;0.60;;;15.40;99.90;;;;;;5093498;28;20253;-65
2020/12/23 04:31:24;;;;;;;3.20;0.80;;;15.40;99.90;;;;;;5094166;28;20180;-65
2020/12/23 04:33:49;;;;;;;1.10;0.60;;;15.30;99.90;;;;;;5093359;28;20165;-66
2020/12/23 04:36:15;;;;;;;0.90;0.70;;;15.30;99.90;;;;;;5093703;28;20164;-65
2020/12/23 04:38:41;;;;;;;0.80;0.70;;;15.30;99.90;;;;;;5081841;28;20561;-65
2020/12/23 04:41:07;;;;;;;0.80;0.73;;;15.40;99.90;;;;;;5093750;28;20234;-65
2020/12/23 04:43:33;;;;;;;1.43;1.00;;;15.50;99.90;;;;;;5093316;28;20176;-65
2020/12/23 04:45:59;;;;;;;0.90;0.70;;;15.50;99.90;;;;;;5093419;28;20807;-65
2020/12/23 04:48:29;;;;;;;0.90;0.80;;;15.40;99.90;;;;;;5093349;28;20423;-65
2020/12/23 04:50:55;;;;;;;1.80;0.90;;;15.40;99.90;;;;;;5093890;28;20461;-65
2020/12/23 04:53:22;;;;;;;1.27;0.80;;;15.30;99.90;;;;;;5093541;28;20435;-65
2020/12/23 04:55:47;;;;;;;0.70;0.60;;;15.30;99.90;;;;;;5093289;28;20946;-65
2020/12/23 04:58:13;;;;;;;1.27;1.00;;;15.30;99.90;;;;;;5092517;28;20421;-66
2020/12/23 05:00:39;;;;;;;1.60;0.80;;;15.30;99.90;;;;;;5093506;28;20582;-65
2020/12/23 05:03:04;;;;;;;2.30;0.80;;;15.30;99.90;;;;;;5093833;28;20247;-66
2020/12/23 05:05:30;;;;;;;1.10;0.60;;;15.20;99.90;;;;;;5093228;28;20212;-66
2020/12/23 05:07:56;;;;;;;1.37;0.70;;;15.20;99.90;;;;;;5096715;28;20195;-66
2020/12/23 05:10:23;;;;;;;1.10;0.63;;;15.20;99.90;;;;;;5097228;28;20217;-67
2020/12/23 05:12:49;;;;;;;0.80;0.80;;;15.10;99.90;;;;;;5096439;28;20166;-65
2020/12/23 05:15:17;;;;;;;0.87;0.80;;;15.10;99.90;;;;;;5096957;28;20408;-66
2020/12/23 05:17:45;;;;;;;0.97;0.70;;;15.10;99.90;;;;;;5080398;28;20626;-65
2020/12/23 05:20:11;;;;;;;0.80;0.63;;;15.10;99.90;;;;;;5076645;28;20471;-67
2020/12/23 05:22:37;;;;;;;0.80;0.67;;;15.20;99.90;;;;;;5076558;28;20403;-66
2020/12/23 05:25:04;;;;;;;0.80;0.70;;;15.10;99.90;;;;;;5076434;28;20899;-67
2020/12/23 05:27:33;;;;;;;0.90;0.60;;;15.20;99.90;;;;;;5075801;28;20196;-67
2020/12/23 05:30:02;;;;;;;1.07;0.80;;;15.30;99.90;;;;;;5076152;28;20871;-67
2020/12/23 05:32:28;;;;;;;0.80;0.60;;;15.10;99.90;;;;;;5087341;28;20402;-66
2020/12/23 05:35:00;;;;;;;0.80;0.60;;;15.10;99.90;;;;;;5096938;28;20424;-66
2020/12/23 05:37:26;;;;;;;0.83;0.70;;;15.10;99.90;;;;;;5097054;28;20390;-67
2020/12/23 05:39:52;;;;;;;1.10;0.70;;;15.00;99.90;;;;;;5096922;28;20407;-66
2020/12/23 05:42:19;;;;;;;1.07;0.70;;;14.90;99.90;;;;;;5096330;28;20410;-66
2020/12/23 05:44:54;;;;;;;0.70;0.63;;;14.90;99.90;;;;;;5096647;28;20398;-66
2020/12/23 05:47:25;;;;;;;1.57;0.90;;;15.00;99.90;;;;;;5083048;28;20419;-67
2020/12/23 05:49:52;;;;;;;0.77;0.67;;;15.00;99.90;;;;;;5075778;28;20958;-66
2020/12/23 05:52:21;;;;;;;1.37;0.70;;;15.10;99.90;;;;;;5075992;28;20492;-65
2020/12/23 05:54:51;;;;;;;2.23;0.83;;;15.20;99.90;;;;;;5075984;28;20408;-66
2020/12/23 05:57:17;;;;;;;0.90;0.70;;;15.20;99.90;;;;;;5075212;28;20411;-66
2020/12/23 05:59:42;;;;;;;4.20;0.87;;;15.10;99.90;;;;;;5075722;28;20899;-66
2020/12/23 06:02:10;;;;;;;0.90;0.60;;;15.10;99.90;;;;;;5075722;28;20180;-66
2020/12/23 06:04:41;;;;;;;1.30;0.80;;;15.10;99.90;;;;;;5075627;28;20171;-66
2020/12/23 06:07:06;;;;;;;2.50;1.10;;;15.10;99.90;;;;;;5075600;28;20515;-66
2020/12/23 06:09:48;;;;;;;1.17;0.80;;;15.10;99.90;;;;;;5075318;28;20531;-66
2020/12/23 06:12:17;;;;;;;0.70;0.63;;;15.10;99.90;;;;;;5094847;28;20168;-66
2020/12/23 06:15:08;;;;;;;2.30;1.00;;;15.00;99.90;;;;;;5095759;28;20446;-66
2020/12/23 06:17:44;;;;;;;1.13;0.77;;;14.90;99.90;;;;;;5080221;28;20465;-66
2020/12/23 06:20:11;;;;;;;0.80;0.70;;;14.90;99.90;;;;;;5075068;28;20805;-66
2020/12/23 06:22:39;;;;;;;1.70;0.80;;;14.90;99.90;;;;;;5075191;28;20426;-66
2020/12/23 06:25:05;;;;;;;1.10;1.00;;;15.00;99.90;;;;;;5074861;28;20429;-67
2020/12/23 06:27:33;;;;;;;1.17;0.70;;;15.00;99.90;;;;;;5074488;28;20514;-66
2020/12/23 06:29:59;;;;;;;1.07;0.87;;;15.00;99.90;;;;;;5075677;28;20273;-66
2020/12/23 06:32:25;;;;;;;1.23;1.00;;;14.90;99.90;;;;;;5086378;28;20436;-64
2020/12/23 06:35:02;;;;;;;1.93;0.70;;;14.90;99.90;;;;;;5095691;28;20406;-66
2020/12/23 06:37:32;;;;;;;1.47;0.87;;;15.00;99.90;;;;;;5095399;28;20436;-66
2020/12/23 06:39:58;;;;;;;2.30;0.80;;;15.10;99.90;;;;;;5095382;28;20410;-66
2020/12/23 06:42:28;;;;;;;1.43;0.90;;;15.20;99.90;;;;;;5094834;28;20913;-66
2020/12/23 06:44:57;;;;;;;1.07;0.80;;;15.20;99.90;;;;;;5095764;28;20405;-66
2020/12/23 06:47:23;;;;;;;0.80;0.60;;;14.90;99.90;;;;;;5081900;28;20438;-66
2020/12/23 06:50:01;;;;;;;1.20;0.83;;;14.80;99.90;;;;;;5075123;28;20888;-66
2020/12/23 06:52:27;;;;;;;1.10;0.70;;;14.80;99.90;;;;;;5075312;28;20728;-66
2020/12/23 06:54:54;;;;;;;1.33;1.03;;;14.70;99.90;;;;;;5074973;28;20397;-66
2020/12/23 06:57:37;;;;;;;1.60;0.93;;;14.90;99.90;;;;;;5074233;28;20394;-66
2020/12/23 07:00:23;;;;;;;1.60;0.90;;;14.80;99.90;;;;;;5074633;28;20405;-66
2020/12/23 07:02:58;;;;;;;1.03;0.93;;;14.80;99.90;;;;;;5074952;28;20420;-66
2020/12/23 07:05:24;;;;;;;1.00;0.80;;;14.80;99.90;;;;;;5074746;28;20416;-65
2020/12/23 07:07:50;;;;;;;1.30;1.00;;;14.80;99.90;;;;;;5074408;28;20421;-66
2020/12/23 07:10:18;;;;;;;1.23;1.03;;;14.80;99.90;;;;;;5074820;28;20199;-66
2020/12/23 07:12:53;;;;;;;2.00;1.10;;;14.80;99.90;;;;;;5074405;28;20394;-66
2020/12/23 07:15:23;;;;;;;1.30;1.20;;;14.80;99.90;;;;;;5074079;28;20425;-66
2020/12/23 07:17:54;;;;;;;1.60;1.20;;;14.80;99.90;;;;;;5074187;28;20442;-66
2020/12/23 07:20:24;;;;;;;1.60;1.00;;;14.90;99.90;;;;;;5073979;28;20449;-66
2020/12/23 07:22:51;;;;;;;1.10;1.00;;;14.80;99.90;;;;;;5074212;28;20467;-66
2020/12/23 07:25:27;;;;;;;1.00;0.80;;;14.80;99.90;;;;;;5074380;28;20441;-66
2020/12/23 07:27:58;;;;;;;2.00;1.20;;;14.80;99.90;;;;;;5073418;28;20417;-66
2020/12/23 07:30:24;;;;;;;0.80;0.80;;;14.70;99.90;;;;;;5078554;28;20454;-66
2020/12/23 07:33:14;;;;;;;1.00;0.90;;;14.80;99.90;;;;;;5087840;28;20429;-66
2020/12/23 07:35:43;;;;;;;0.90;0.70;;;14.90;99.90;;;;;;5094348;28;20477;-67
2020/12/23 07:38:09;;;;;;;0.80;0.60;;;15.00;99.90;;;;;;5094198;28;20804;-66
2020/12/23 07:40:35;;;;;;;1.60;0.90;;;14.90;99.90;;;;;;5093946;28;20418;-66
2020/12/23 07:43:02;;;;;;;1.17;1.00;;;14.80;99.90;;;;;;5094068;28;20420;-66
2020/12/23 07:45:30;;;;;;;1.03;0.90;;;14.80;99.90;;;;;;5094197;28;20397;-66
2020/12/23 07:48:01;;;;;;;1.23;0.90;;;14.70;99.90;;;;;;5079967;28;20444;-66
2020/12/23 07:50:30;;;;;;;1.80;0.93;;;14.80;99.90;;;;;;5093898;28;20449;-66
2020/12/23 07:52:55;;;;;;;1.40;1.30;;;14.80;99.90;;;;;;5094010;28;20409;-66
2020/12/23 07:55:23;;;;;;;3.50;1.90;;;14.90;99.90;;;;;;5094252;28;20778;-65
2020/12/23 07:57:53;;;;;;;2.70;2.50;;;14.90;99.90;;;;;;5093377;28;20180;-66
2020/12/23 08:00:20;;;;;;;1.23;1.13;;;14.80;99.90;;;;;;5094758;28;20387;-66
2020/12/23 08:02:46;;;;;;;1.00;0.90;;;14.80;99.90;;;;;;5094205;28;20474;-67
2020/12/23 08:05:13;;;;;;;0.97;0.80;;;14.90;99.90;;;;;;5093841;28;20400;-66
2020/12/23 08:07:41;;;;;;;1.30;0.90;;;14.90;99.90;;;;;;5094079;28;20426;-65
2020/12/23 08:10:15;;;;;;;1.83;1.17;;;14.90;99.90;;;;;;5095866;28;20446;-65
2020/12/23 08:12:50;;;;;;;1.43;1.23;;;15.00;99.90;;;;;;5112307;28;20420;-65
2020/12/23 08:15:16;;;;;;;1.00;0.83;;;15.00;99.90;;;;;;5112762;28;20410;-66
2020/12/23 08:17:42;;;;;;;1.00;0.90;;;15.00;99.90;;;;;;5081533;28;20426;-66
2020/12/23 08:20:11;;;;;;;0.80;0.77;;;15.20;99.90;;;;;;5073372;28;20192;-66
2020/12/23 08:22:38;;;;;;;1.10;0.90;;;15.30;99.90;;;;;;5073263;28;20792;-65
2020/12/23 08:25:15;;;;;;;1.93;0.90;;;15.30;99.90;;;;;;5082946;28;20441;-66
2020/12/23 08:27:43;;;;;;;1.10;0.83;;;15.30;99.90;;;;;;5092876;28;20421;-65
2020/12/23 08:30:18;;;;;;;1.20;0.90;;;15.40;99.90;;;;;;5093574;28;20510;-66
2020/12/23 08:32:55;;;;;;;1.20;1.10;;;15.50;99.90;;;;;;5093755;28;20386;-66
2020/12/23 08:35:26;;;;;;;1.90;1.30;;;15.50;99.90;;;;;;5093694;28;20474;-65
2020/12/23 08:37:51;;;;;;;0.80;0.70;;;15.30;99.90;;;;;;5093710;28;20415;-65
2020/12/23 08:40:17;;;;;;;1.60;1.20;;;15.20;99.90;;;;;;5093421;28;20470;-62
2020/12/23 08:42:59;;;;;;;1.47;1.37;;;15.30;99.90;;;;;;5096366;28;20171;-62
2020/12/23 08:45:27;;;;;;;2.93;2.10;;;15.50;99.90;;;;;;5097872;28;20157;-62
2020/12/23 08:47:53;;;;;;;1.40;1.30;;;15.60;99.90;;;;;;5079465;28;20977;-62
2020/12/23 08:50:21;;;;;;;1.60;1.50;;;15.70;99.90;;;;;;5077265;28;20907;-62
2020/12/23 08:52:48;;;;;;;1.30;1.20;;;15.90;99.90;;;;;;5077500;28;20454;-62
2020/12/23 08:55:19;;;;;;;1.83;1.73;;;15.70;99.90;;;;;;5077526;28;20627;-62
2020/12/23 08:57:46;;;;;;;1.53;0.87;;;15.70;99.90;;;;;;5076299;28;20420;-62
2020/12/23 09:00:21;;;;;;;2.53;1.00;;;15.70;99.90;;;;;;5076857;28;20461;-62
2020/12/23 09:02:50;;;;;;;2.40;1.37;;;15.80;99.90;;;;;;5077797;28;20493;-65
2020/12/23 09:05:23;;;;;;;1.27;1.00;;;15.70;99.90;;;;;;5077495;28;20401;-65
2020/12/23 09:08:09;;;;;;;1.80;0.90;;;15.80;99.90;;;;;;5077240;28;20462;-65
2020/12/23 09:10:36;;;;;;;1.30;1.20;;;15.90;99.90;;;;;;5076663;28;20436;-66
2020/12/23 09:13:05;;;;;;;1.00;0.90;;;15.90;99.90;;;;;;5076181;28;20401;-66
2020/12/23 09:15:31;;;;;;;1.00;0.90;;;16.00;99.90;;;;;;5076880;28;20978;-65
2020/12/23 09:18:13;;;;;;;1.60;1.03;;;16.10;99.90;;;;;;5076591;28;20520;-66
2020/12/23 09:20:41;;;;;;;1.53;0.90;;;16.00;99.90;;;;;;5076487;28;20192;-65
2020/12/23 09:23:08;;;;;;;1.27;1.00;;;16.00;99.90;;;;;;5076741;28;20407;-66
2020/12/23 09:25:35;;;;;;;1.13;0.93;;;16.00;99.90;;;;;;5090113;28;20484;-65
2020/12/23 09:28:08;;;;;;;1.10;0.90;;;16.00;99.90;;;;;;5096183;28;20932;-66
2020/12/23 09:30:39;;;;;;;0.90;0.80;;;16.10;99.90;;;;;;5096477;28;20486;-66
2020/12/23 09:33:09;;;;;;;1.00;0.90;;;16.00;99.90;;;;;;5096524;28;20912;-65
2020/12/23 09:35:35;;;;;;;1.13;1.10;;;16.00;99.90;;;;;;5097227;28;20507;-66
2020/12/23 09:38:08;;;;;;;1.20;1.10;;;15.90;99.90;;;;;;5096643;28;20434;-65
2020/12/23 09:40:44;;;;;;;1.43;0.90;;;15.90;99.90;;;;;;5097088;28;20421;-66
2020/12/23 09:43:18;;;;;;;1.10;0.93;;;15.80;99.90;;;;;;5096134;28;20493;-66
2020/12/23 09:45:45;;;;;;;1.07;1.00;;;16.00;99.90;;;;;;5096507;28;20473;-65
2020/12/23 09:48:11;;;;;;;1.77;1.17;;;16.10;99.90;;;;;;5076120;28;20424;-66
2020/12/23 09:50:37;;;;;;;1.40;1.17;;;16.10;99.90;;;;;;5075920;28;20490;-65
2020/12/23 09:53:02;;;;;;;1.33;1.00;;;16.10;99.90;;;;;;5075082;28;20536;-66
2020/12/23 09:55:28;;;;;;;1.40;0.90;;;16.20;99.90;;;;;;5075732;28;20237;-65
2020/12/23 09:57:54;;;;;;;2.27;1.13;;;16.10;99.90;;;;;;5075275;28;20192;-66
2020/12/23 10:00:20;;;;;;;1.20;1.00;;;16.20;99.90;;;;;;5075773;28;20418;-66
2020/12/23 10:02:46;;;;;;;2.40;1.60;;;16.20;99.90;;;;;;5076010;28;20252;-66
2020/12/23 10:05:11;;;;;;;2.60;1.20;;;16.30;99.90;;;;;;5075533;28;20175;-66
2020/12/23 10:07:37;;;;;;;1.20;1.10;;;16.10;99.90;;;;;;5075444;28;20421;-66
2020/12/23 10:10:04;;;;;;;1.73;1.10;;;16.10;99.90;;;;;;5075447;28;20194;-65
2020/12/23 10:12:30;;;;;;;1.13;1.07;;;15.90;99.90;;;;;;5089793;28;20172;-65
2020/12/23 10:14:55;;;;;;;1.97;1.10;;;15.80;99.90;;;;;;5095422;28;20403;-65
2020/12/23 10:17:21;;;;;;;0.80;0.80;;;15.70;99.90;;;;;;5082093;28;20184;-66
2020/12/23 10:19:47;;;;;;;1.03;0.90;;;15.60;99.90;;;;;;5075095;28;20292;-66
2020/12/23 10:22:12;;;;;;;1.27;1.13;;;15.80;99.90;;;;;;5073483;28;20208;-66
2020/12/23 10:24:38;;;;;;;1.13;1.03;;;15.90;99.90;;;;;;5083931;28;20181;-65
2020/12/23 10:27:04;;;;;;;1.70;1.40;;;15.80;99.90;;;;;;5095112;28;20232;-66
2020/12/23 10:29:30;;;;;;;1.37;1.20;;;15.90;99.90;;;;;;5095170;28;20288;-65
2020/12/23 10:31:55;;;;;;;1.43;1.20;;;16.20;99.90;;;;;;5095432;28;20412;-66
2020/12/23 10:34:21;;;;;;;1.30;1.00;;;16.40;99.90;;;;;;5095876;28;20260;-66
2020/12/23 10:36:48;;;;;;;2.00;1.00;;;16.80;99.90;;;;;;5095718;28;20172;-65
2020/12/23 10:39:17;;;;;;;2.27;1.10;;;16.70;99.90;;;;;;5095332;28;20204;-65
2020/12/23 10:41:44;;;;;;;1.03;0.93;;;16.80;99.90;;;;;;5095655;28;20401;-66
2020/12/23 10:44:11;;;;;;;1.40;1.30;;;16.50;99.90;;;;;;5094933;28;20921;-66
2020/12/23 10:46:37;;;;;;;1.30;1.00;;;16.60;99.90;;;;;;5088042;28;20473;-66
2020/12/23 10:49:06;;;;;;;1.70;1.27;;;16.60;99.90;;;;;;5075046;28;20435;-66
2020/12/23 10:51:32;;;;;;;1.17;1.07;;;16.40;99.90;;;;;;5075465;28;20163;-63
2020/12/23 10:53:57;;;;;;;1.27;0.90;;;16.60;99.90;;;;;;5074852;28;20482;-63
2020/12/23 10:56:23;;;;;;;1.00;0.90;;;16.70;99.90;;;;;;5075754;28;20175;-63
2020/12/23 10:58:49;;;;;;;1.03;0.93;;;16.70;99.90;;;;;;5075338;28;20257;-62
2020/12/23 11:01:18;;;;;;;1.10;0.90;;;16.70;99.90;;;;;;5075932;28;20179;-63
2020/12/23 11:03:44;;;;;;;1.63;1.50;;;16.90;99.90;;;;;;5080141;28;20211;-63
2020/12/23 11:06:15;;;;;;;1.27;1.07;;;17.00;99.90;;;;;;5078435;28;20410;-65
2020/12/23 11:08:42;;;;;;;2.93;2.43;;;17.20;99.90;;;;;;5084068;28;20427;-66
2020/12/23 11:11:11;;;;;;;3.43;2.10;;;17.10;99.90;;;;;;5080048;28;20526;-66
2020/12/23 11:13:37;;;;;;;1.67;1.40;;;17.30;99.90;;;;;;5078572;28;20416;-67
2020/12/23 11:16:02;;;;;;;1.63;1.10;;;17.40;99.90;;;;;;5074488;28;20406;-67
2020/12/23 11:18:28;;;;;;;1.70;1.33;;;17.50;99.90;;;;;;5088924;28;20206;-66
2020/12/23 11:20:53;;;;;;;1.20;1.10;;;17.40;99.90;;;;;;5094282;28;20205;-65
2020/12/23 11:23:26;;;;;;;1.40;1.23;;;17.40;99.90;;;;;;5094085;28;20281;-65
2020/12/23 11:25:52;;;;;;;1.50;1.33;;;17.30;99.90;;;;;;5093567;28;20264;-65
2020/12/23 11:28:17;;;;;;;2.30;1.60;;;17.30;99.90;;;;;;5093939;28;20492;-66
2020/12/23 11:30:43;;;;;;;1.33;1.10;;;17.30;99.90;;;;;;5094428;28;20307;-65
2020/12/23 11:33:09;;;;;;;1.70;1.27;;;17.20;99.90;;;;;;5094145;28;20409;-65
2020/12/23 11:35:35;;;;;;;1.40;1.03;;;16.80;99.90;;;;;;5094349;28;20762;-65
2020/12/23 11:38:00;;;;;;;1.30;1.10;;;16.90;99.90;;;;;;5093935;28;20192;-65
2020/12/23 11:40:26;;;;;;;1.43;1.10;;;16.70;99.90;;;;;;5093978;28;20181;-65
2020/12/23 11:42:52;;;;;;;1.40;1.30;;;16.70;99.90;;;;;;5093717;28;20236;-61
2020/12/23 11:45:17;;;;;;;1.70;1.60;;;16.80;99.90;;;;;;5093722;28;20174;-62
2020/12/23 11:47:44;;;;;;;1.87;1.77;;;16.80;99.90;;;;;;5077396;28;20270;-62
2020/12/23 11:50:10;;;;;;;2.27;2.07;;;16.90;99.90;;;;;;5073523;28;20207;-63
2020/12/23 11:52:36;;;;;;;2.50;2.23;;;17.00;99.90;;;;;;5073883;28;20892;-62
2020/12/23 11:55:02;;;;;;;1.30;1.20;;;16.90;99.90;;;;;;5073571;28;20401;-62
2020/12/23 11:57:27;;;;;;;1.73;1.43;;;16.90;99.90;;;;;;5073107;28;20181;-63
2020/12/23 11:59:53;;;;;;;1.97;1.77;;;16.90;99.90;;;;;;5073436;28;20197;-66
2020/12/23 12:02:18;;;;;;;1.53;1.43;;;17.00;99.90;;;;;;5073450;28;20645;-66
2020/12/23 12:04:44;;;;;;;1.83;1.63;;;16.80;99.90;;;;;;5073310;28;20212;-66
2020/12/23 12:07:09;;;;;;;2.20;1.70;;;16.80;99.90;;;;;;5073260;28;20171;-66
2020/12/23 12:09:35;;;;;;;1.63;1.03;;;16.60;99.90;;;;;;5073724;28;20231;-66
2020/12/23 12:12:03;;;;;;;1.50;1.40;;;16.50;99.90;;;;;;5073806;28;20196;-63
2020/12/23 12:14:29;;;;;;;1.47;1.23;;;16.60;99.90;;;;;;5072852;28;20165;-63
2020/12/23 12:16:54;;;;;;;1.70;1.50;;;16.60;99.90;;;;;;5074211;28;20445;-62
2020/12/23 12:19:20;;;;;;;1.10;1.00;;;16.70;99.90;;;;;;5083715;28;20499;-63
2020/12/23 12:21:46;;;;;;;1.37;1.27;;;16.80;99.90;;;;;;5087520;28;20184;-62
2020/12/23 12:24:11;;;;;;;1.10;1.00;;;16.90;99.90;;;;;;5093476;28;20655;-62
2020/12/23 12:26:37;;;;;;;1.03;0.90;;;17.10;99.90;;;;;;5093707;28;20176;-63
2020/12/23 12:29:03;;;;;;;1.60;1.10;;;17.00;99.90;;;;;;5093509;28;20724;-63
2020/12/23 12:31:29;;;;;;;1.00;0.90;;;17.00;99.90;;;;;;5093678;28;20169;-63
2020/12/23 12:33:56;;;;;;;3.40;2.60;;;17.00;99.90;;;;;;5093393;28;20402;-63
2020/12/23 12:36:23;;;;;;;2.63;2.43;;;16.90;99.90;;;;;;5093430;28;20639;-63
2020/12/23 12:38:48;;;;;;;2.20;1.93;;;17.00;99.90;;;;;;5093536;28;20431;-63
2020/12/23 12:41:20;;;;;;;2.03;1.83;;;16.90;99.90;;;;;;5093636;28;20942;-63
2020/12/23 12:43:46;;;;;;;1.67;1.57;;;16.80;99.90;;;;;;5093387;28;20220;-63
2020/12/23 12:46:11;;;;;;;2.70;1.57;;;16.90;99.90;;;;;;5093800;28;20414;-63
2020/12/23 12:48:37;;;;;;;1.30;1.20;;;16.90;99.90;;;;;;5093295;28;20196;-63